createdAt,value
2016-07-13T00:00:11.973Z,-86
2016-07-13T00:01:11.896Z,-87
2016-07-13T00:02:11.976Z,-87
2016-07-13T00:03:11.984Z,-87
2016-07-13T00:04:11.986Z,-87
2016-07-13T00:05:12.021Z,-86
2016-07-13T00:06:11.996Z,-87
2016-07-13T00:07:11.838Z,-87
2016-07-13T00:08:11.925Z,-87
2016-07-13T00:09:11.991Z,-87
2016-07-13T00:10:11.995Z,-87
2016-07-13T00:11:11.944Z,-87
2016-07-13T00:12:12.010Z,-87
2016-07-13T00:13:12.094Z,-87
2016-07-13T00:14:12.082Z,-86
2016-07-13T00:15:11.917Z,-87
2016-07-13T00:16:11.980Z,-87
2016-07-13T00:17:12.021Z,-87
2016-07-13T00:18:11.961Z,-87
2016-07-13T00:19:12.108Z,-87
2016-07-13T00:20:12.124Z,-86
2016-07-13T00:21:12.012Z,-87
2016-07-13T00:22:12.057Z,-87
2016-07-13T00:23:11.953Z,-87
2016-07-13T00:24:11.980Z,-87
2016-07-13T00:25:12.023Z,-87
2016-07-13T00:26:11.968Z,-87
2016-07-13T00:27:12.054Z,-87
2016-07-13T00:28:12.006Z,-87
2016-07-13T00:29:11.977Z,-87
2016-07-13T00:30:11.985Z,-87
2016-07-13T00:31:12.123Z,-87
2016-07-13T00:32:12.042Z,-87
2016-07-13T00:35:20.008Z,-87
2016-07-13T00:35:26.985Z,-87
2016-07-13T00:36:26.948Z,-87
2016-07-13T00:37:26.974Z,-87
2016-07-13T00:38:26.903Z,-87
2016-07-13T00:39:26.837Z,-87
2016-07-13T00:40:26.931Z,-87
2016-07-13T00:41:26.996Z,-87
2016-07-13T00:42:26.990Z,-87
2016-07-13T00:43:26.995Z,-87
2016-07-13T00:44:27.003Z,-87
2016-07-13T00:45:27.002Z,-87
2016-07-13T00:46:26.982Z,-87
2016-07-13T00:47:27.016Z,-87
2016-07-13T00:48:27.085Z,-87
2016-07-13T00:49:26.933Z,-87
2016-07-13T00:50:26.939Z,-87
2016-07-13T00:51:26.944Z,-87
2016-07-13T00:52:27.238Z,-87
2016-07-13T00:53:27.030Z,-87
2016-07-13T00:54:27.024Z,-87
2016-07-13T00:55:26.970Z,-87
2016-07-13T00:56:27.028Z,-87
2016-07-13T00:57:27.037Z,-87
2016-07-13T00:58:26.991Z,-87
2016-07-13T00:59:26.878Z,-87
2016-07-13T01:00:26.956Z,-87
2016-07-13T01:01:26.966Z,-87
2016-07-13T01:02:27.055Z,-87
2016-07-13T01:03:26.970Z,-87
2016-07-13T01:04:26.906Z,-87
2016-07-13T01:05:27.093Z,-87
2016-07-13T01:06:27.155Z,-87
2016-07-13T01:07:26.980Z,-87
2016-07-13T01:08:27.085Z,-87
2016-07-13T01:09:27.070Z,-87
2016-07-13T01:10:27.003Z,-87
2016-07-13T01:11:27.077Z,-87
2016-07-13T01:12:27.102Z,-87
2016-07-13T01:13:27.082Z,-88
2016-07-13T01:14:27.004Z,-87
2016-07-13T01:15:27.080Z,-88
2016-07-13T01:16:27.023Z,-87
2016-07-13T01:17:27.106Z,-87
2016-07-13T01:18:27.023Z,-88
2016-07-13T01:19:27.031Z,-88
2016-07-13T01:20:27.016Z,-87
2016-07-13T01:21:27.099Z,-87
2016-07-13T01:22:27.108Z,-87
2016-07-13T01:23:26.951Z,-87
2016-07-13T01:24:27.041Z,-87
2016-07-13T01:25:26.947Z,-87
2016-07-13T01:26:27.199Z,-87
2016-07-13T01:27:27.099Z,-87
2016-07-13T01:28:27.134Z,-87
2016-07-13T01:29:27.043Z,-87
2016-07-13T01:30:27.199Z,-87
2016-07-13T01:31:27.046Z,-87
2016-07-13T01:32:27.122Z,-87
2016-07-13T01:33:27.135Z,-88
2016-07-13T01:34:27.060Z,-87
2016-07-13T01:35:27.005Z,-87
2016-07-13T01:36:27.228Z,-88
2016-07-13T01:37:27.221Z,-87
2016-07-13T01:38:27.070Z,-87
2016-07-13T01:39:27.138Z,-87
2016-07-13T01:40:27.087Z,-87
2016-07-13T01:41:27.084Z,-87
2016-07-13T01:42:27.070Z,-88
2016-07-13T01:43:26.995Z,-87
2016-07-13T01:44:27.227Z,-87
2016-07-13T01:45:27.081Z,-87
2016-07-13T01:46:27.095Z,-87
2016-07-13T01:47:27.089Z,-87
2016-07-13T01:48:27.156Z,-87
2016-07-13T01:49:27.200Z,-88
2016-07-13T01:50:27.258Z,-87
2016-07-13T01:51:27.262Z,-87
2016-07-13T01:52:27.207Z,-87
2016-07-13T01:53:27.105Z,-87
2016-07-13T01:54:27.186Z,-87
2016-07-13T01:55:27.213Z,-88
2016-07-13T01:56:27.204Z,-87
2016-07-13T01:57:27.203Z,-87
2016-07-13T01:58:27.137Z,-87
2016-07-13T01:59:27.135Z,-87
2016-07-13T02:00:27.123Z,-87
2016-07-13T02:01:27.122Z,-87
2016-07-13T02:02:27.125Z,-87
2016-07-13T02:03:27.133Z,-87
2016-07-13T02:04:27.214Z,-87
2016-07-13T02:05:27.299Z,-87
2016-07-13T02:06:27.153Z,-87
2016-07-13T02:07:27.137Z,-87
2016-07-13T02:08:27.164Z,-88
2016-07-13T02:09:27.237Z,-88
2016-07-13T02:10:27.072Z,-88
2016-07-13T02:11:27.157Z,-87
2016-07-13T02:12:27.172Z,-88
2016-07-13T02:13:27.232Z,-88
2016-07-13T02:14:27.160Z,-87
2016-07-13T02:15:27.336Z,-88
2016-07-13T02:16:27.106Z,-87
2016-07-13T02:17:27.108Z,-87
2016-07-13T02:18:27.105Z,-87
2016-07-13T02:19:27.269Z,-88
2016-07-13T02:20:27.266Z,-88
2016-07-13T02:21:27.270Z,-87
2016-07-13T02:22:27.352Z,-88
2016-07-13T02:23:27.189Z,-87
2016-07-13T02:24:27.295Z,-87
2016-07-13T02:25:27.215Z,-87
2016-07-13T02:26:27.148Z,-88
2016-07-13T02:27:27.274Z,-87
2016-07-13T02:28:27.288Z,-88
2016-07-13T02:29:27.223Z,-87
2016-07-13T02:30:27.299Z,-88
2016-07-13T02:31:27.161Z,-88
2016-07-13T02:32:27.385Z,-87
2016-07-13T02:33:27.144Z,-88
2016-07-13T02:34:27.370Z,-87
2016-07-13T02:35:27.289Z,-87
2016-07-13T02:36:27.250Z,-88
2016-07-13T02:37:27.234Z,-87
2016-07-13T02:38:27.236Z,-88
2016-07-13T02:39:27.325Z,-87
2016-07-13T02:40:27.254Z,-88
2016-07-13T02:41:27.238Z,-87
2016-07-13T02:42:27.182Z,-88
2016-07-13T02:43:27.399Z,-88
2016-07-13T02:44:27.177Z,-87
2016-07-13T02:45:27.263Z,-88
2016-07-13T02:46:27.332Z,-87
2016-07-13T02:47:27.266Z,-88
2016-07-13T02:48:27.342Z,-87
2016-07-13T02:49:27.283Z,-87
2016-07-13T02:50:27.341Z,-88
2016-07-13T02:51:27.287Z,-87
2016-07-13T02:52:27.307Z,-87
2016-07-13T02:53:27.200Z,-88
2016-07-13T02:54:27.292Z,-88
2016-07-13T02:55:27.294Z,-88
2016-07-13T02:56:27.306Z,-87
2016-07-13T02:57:27.273Z,-88
2016-07-13T02:58:27.223Z,-88
2016-07-13T02:59:27.285Z,-88
2016-07-13T03:00:27.388Z,-87
2016-07-13T03:01:27.379Z,-88
2016-07-13T03:02:27.389Z,-88
2016-07-13T03:03:27.317Z,-88
2016-07-13T03:04:27.402Z,-88
2016-07-13T03:05:27.304Z,-88
2016-07-13T03:06:27.390Z,-88
2016-07-13T03:07:27.337Z,-87
2016-07-13T03:08:27.256Z,-87
2016-07-13T03:09:27.411Z,-88
2016-07-13T03:10:27.416Z,-87
2016-07-13T03:11:27.392Z,-87
2016-07-13T03:12:27.336Z,-87
2016-07-13T03:13:27.404Z,-87
2016-07-13T03:14:27.393Z,-87
2016-07-13T03:15:27.257Z,-88
2016-07-13T03:16:27.334Z,-87
2016-07-13T03:17:27.509Z,-88
2016-07-13T03:18:27.435Z,-88
2016-07-13T03:19:27.355Z,-88
2016-07-13T03:20:27.421Z,-88
2016-07-13T03:21:27.363Z,-87
2016-07-13T03:22:27.489Z,-87
2016-07-13T03:23:27.375Z,-87
2016-07-13T03:24:27.370Z,-88
2016-07-13T03:25:27.457Z,-88
2016-07-13T03:26:27.369Z,-87
2016-07-13T03:27:27.451Z,-88
2016-07-13T03:28:27.375Z,-88
2016-07-13T03:29:27.524Z,-88
2016-07-13T03:30:27.402Z,-87
2016-07-13T03:31:27.399Z,-88
2016-07-13T03:32:27.470Z,-87
2016-07-13T03:33:27.328Z,-88
2016-07-13T03:34:27.549Z,-88
2016-07-13T03:35:27.579Z,-88
2016-07-13T03:36:28.143Z,-88
2016-07-13T03:37:27.405Z,-88
2016-07-13T03:38:27.434Z,-88
2016-07-13T03:39:27.482Z,-88
2016-07-13T03:40:27.567Z,-88
2016-07-13T03:41:27.408Z,-88
2016-07-13T03:42:27.401Z,-88
2016-07-13T03:43:27.429Z,-88
2016-07-13T03:44:27.581Z,-88
2016-07-13T03:45:27.490Z,-87
2016-07-13T03:46:27.405Z,-88
2016-07-13T03:47:27.441Z,-87
2016-07-13T03:48:27.429Z,-88
2016-07-13T03:49:27.517Z,-88
2016-07-13T03:50:27.516Z,-88
2016-07-13T03:51:27.393Z,-88
2016-07-13T03:52:27.442Z,-88
2016-07-13T03:53:27.612Z,-87
2016-07-13T03:54:27.478Z,-88
2016-07-13T03:55:28.162Z,-88
2016-07-13T03:56:27.566Z,-87
2016-07-13T03:57:27.490Z,-87
2016-07-13T03:58:27.666Z,-88
2016-07-13T03:59:27.491Z,-87
2016-07-13T04:00:27.405Z,-87
2016-07-13T04:01:27.471Z,-88
2016-07-13T04:02:27.477Z,-87
2016-07-13T04:03:27.550Z,-88
2016-07-13T04:04:27.484Z,-88
2016-07-13T04:05:27.488Z,-88
2016-07-13T04:06:27.561Z,-88
2016-07-13T04:07:27.593Z,-87
2016-07-13T04:08:27.555Z,-88
2016-07-13T04:09:27.575Z,-88
2016-07-13T04:10:27.583Z,-88
2016-07-13T04:11:27.493Z,-87
2016-07-13T04:12:27.595Z,-88
2016-07-13T04:13:27.489Z,-88
2016-07-13T04:14:27.501Z,-87
2016-07-13T04:15:27.588Z,-87
2016-07-13T04:16:27.596Z,-88
2016-07-13T04:17:27.605Z,-88
2016-07-13T04:18:28.337Z,-88
2016-07-13T04:19:27.525Z,-88
2016-07-13T04:20:27.557Z,-88
2016-07-13T04:21:27.610Z,-87
2016-07-13T04:22:27.466Z,-88
2016-07-13T04:23:27.567Z,-87
2016-07-13T04:24:27.535Z,-88
2016-07-13T04:25:27.649Z,-88
2016-07-13T04:26:27.549Z,-88
2016-07-13T04:27:27.693Z,-87
2016-07-13T04:28:27.543Z,-88
2016-07-13T04:29:27.483Z,-87
2016-07-13T04:30:27.631Z,-88
2016-07-13T04:31:27.701Z,-88
2016-07-13T04:32:27.564Z,-88
2016-07-13T04:33:27.636Z,-87
2016-07-13T04:34:27.637Z,-87
2016-07-13T04:35:27.572Z,-88
2016-07-13T04:36:27.737Z,-87
2016-07-13T04:37:27.570Z,-87
2016-07-13T04:38:27.566Z,-88
2016-07-13T04:39:27.663Z,-87
2016-07-13T04:40:27.592Z,-88
2016-07-13T04:41:27.675Z,-88
2016-07-13T04:42:27.676Z,-88
2016-07-13T04:43:27.602Z,-88
2016-07-13T04:44:27.746Z,-88
2016-07-13T04:45:27.602Z,-88
2016-07-13T04:46:27.511Z,-87
2016-07-13T04:47:27.678Z,-88
2016-07-13T04:48:27.540Z,-88
2016-07-13T04:49:27.655Z,-90
2016-07-13T04:50:27.717Z,-88
2016-07-13T04:51:27.607Z,-88
2016-07-13T04:52:27.617Z,-88
2016-07-13T04:53:27.588Z,-88
2016-07-13T04:54:27.625Z,-88
2016-07-13T04:55:27.738Z,-88
2016-07-13T04:56:27.682Z,-86
2016-07-13T04:57:27.769Z,-88
2016-07-13T04:58:27.568Z,-87
2016-07-13T04:59:27.556Z,-88
2016-07-13T05:00:27.635Z,-87
2016-07-13T05:01:27.823Z,-87
2016-07-13T05:02:28.423Z,-87
2016-07-13T05:03:27.740Z,-87
2016-07-13T05:04:27.636Z,-88
2016-07-13T05:05:27.650Z,-87
2016-07-13T05:06:27.807Z,-87
2016-07-13T05:07:27.733Z,-87
2016-07-13T05:08:27.646Z,-87
2016-07-13T05:09:27.659Z,-87
2016-07-13T05:10:27.839Z,-87
2016-07-13T05:11:27.622Z,-87
2016-07-13T05:12:27.756Z,-87
2016-07-13T05:13:27.667Z,-87
2016-07-13T05:14:27.784Z,-87
2016-07-13T05:15:27.673Z,-87
2016-07-13T05:16:28.204Z,-87
2016-07-13T05:17:27.676Z,-87
2016-07-13T05:18:27.852Z,-87
2016-07-13T05:19:27.830Z,-87
2016-07-13T05:20:27.765Z,-87
2016-07-13T05:21:27.765Z,-87
2016-07-13T05:22:27.610Z,-87
2016-07-13T05:23:27.770Z,-87
2016-07-13T05:24:28.843Z,-87
2016-07-13T05:25:27.686Z,-87
2016-07-13T05:26:27.623Z,-87
2016-07-13T05:27:27.802Z,-87
2016-07-13T05:28:27.655Z,-87
2016-07-13T05:29:27.713Z,-87
2016-07-13T05:30:27.804Z,-87
2016-07-13T05:31:27.715Z,-87
2016-07-13T05:32:27.724Z,-87
2016-07-13T05:33:27.721Z,-86
2016-07-13T05:34:27.830Z,-87
2016-07-13T05:35:27.809Z,-86
2016-07-13T05:36:27.657Z,-86
2016-07-13T05:37:27.738Z,-87
2016-07-13T05:38:27.823Z,-87
2016-07-13T05:39:27.893Z,-86
2016-07-13T05:40:27.728Z,-86
2016-07-13T05:41:27.686Z,-86
2016-07-13T05:42:27.783Z,-86
2016-07-13T05:43:27.908Z,-87
2016-07-13T05:44:27.755Z,-86
2016-07-13T05:45:27.868Z,-86
2016-07-13T05:46:27.752Z,-87
2016-07-13T05:47:27.832Z,-86
2016-07-13T05:48:27.775Z,-86
2016-07-13T05:49:27.760Z,-86
2016-07-13T05:50:27.885Z,-86
2016-07-13T05:51:27.856Z,-86
2016-07-13T05:52:27.788Z,-86
2016-07-13T05:53:28.013Z,-86
2016-07-13T05:54:27.780Z,-86
2016-07-13T05:55:27.850Z,-86
2016-07-13T05:56:28.506Z,-86
2016-07-13T05:57:27.911Z,-86
2016-07-13T05:58:27.788Z,-86
2016-07-13T05:59:27.813Z,-86
2016-07-13T06:00:27.865Z,-87
2016-07-13T06:01:27.865Z,-86
2016-07-13T06:02:27.884Z,-86
2016-07-13T06:03:34.600Z,-86
2016-07-13T06:04:27.922Z,-85
2016-07-13T06:05:27.985Z,-85
2016-07-13T06:06:27.846Z,-86
2016-07-13T06:07:27.840Z,-86
2016-07-13T06:08:27.817Z,-85
2016-07-13T06:09:27.983Z,-86
2016-07-13T06:10:27.835Z,-86
2016-07-13T06:11:27.806Z,-86
2016-07-13T06:12:27.931Z,-86
2016-07-13T06:13:27.992Z,-85
2016-07-13T06:14:27.920Z,-86
2016-07-13T06:15:28.508Z,-85
2016-07-13T06:16:28.106Z,-85
2016-07-13T06:17:27.871Z,-85
2016-07-13T06:18:27.870Z,-85
2016-07-13T06:19:27.851Z,-86
2016-07-13T06:20:27.880Z,-85
2016-07-13T06:21:27.881Z,-85
2016-07-13T06:22:27.970Z,-85
2016-07-13T06:23:27.735Z,-85
2016-07-13T06:24:27.761Z,-85
2016-07-13T06:25:27.729Z,-86
2016-07-13T06:26:27.783Z,-85
2016-07-13T06:27:27.970Z,-85
2016-07-13T06:28:28.131Z,-86
2016-07-13T06:29:27.869Z,-85
2016-07-13T06:30:28.033Z,-85
2016-07-13T06:31:27.793Z,-85
2016-07-13T06:32:27.956Z,-85
2016-07-13T06:33:27.830Z,-85
2016-07-13T06:34:27.990Z,-85
2016-07-13T06:35:28.007Z,-85
2016-07-13T06:36:27.938Z,-85
2016-07-13T06:37:27.930Z,-85
2016-07-13T06:38:28.005Z,-85
2016-07-13T06:39:28.048Z,-86
2016-07-13T06:40:28.012Z,-85
2016-07-13T06:41:28.009Z,-85
2016-07-13T06:42:28.059Z,-85
2016-07-13T06:43:28.100Z,-85
2016-07-13T06:44:28.050Z,-85
2016-07-13T06:45:28.066Z,-85
2016-07-13T06:46:28.116Z,-85
2016-07-13T06:47:27.923Z,-85
2016-07-13T06:48:27.959Z,-85
2016-07-13T06:49:27.969Z,-85
2016-07-13T06:50:28.527Z,-85
2016-07-13T06:51:28.102Z,-85
2016-07-13T06:52:28.071Z,-85
2016-07-13T06:53:28.029Z,-85
2016-07-13T06:54:28.004Z,-85
2016-07-13T06:55:27.964Z,-85
2016-07-13T06:56:27.964Z,-85
2016-07-13T06:57:28.056Z,-85
2016-07-13T06:58:27.947Z,-85
2016-07-13T06:59:28.076Z,-85
2016-07-13T07:00:28.122Z,-85
2016-07-13T07:01:27.899Z,-85
2016-07-13T07:02:27.978Z,-85
2016-07-13T07:03:28.060Z,-84
2016-07-13T07:04:27.977Z,-84
2016-07-13T07:05:28.084Z,-84
2016-07-13T07:06:28.116Z,-84
2016-07-13T07:07:28.090Z,-84
2016-07-13T07:08:28.126Z,-84
2016-07-13T07:09:27.934Z,-85
2016-07-13T07:10:28.684Z,-84
2016-07-13T07:11:28.034Z,-84
2016-07-13T07:12:28.011Z,-84
2016-07-13T07:13:28.100Z,-84
2016-07-13T07:14:28.116Z,-87
2016-07-13T07:15:28.194Z,-88
2016-07-13T07:16:32.034Z,-88
2016-07-13T07:17:28.044Z,-88
2016-07-13T07:18:28.087Z,-87
2016-07-13T07:19:28.098Z,-87
2016-07-13T07:20:28.135Z,-87
2016-07-13T07:21:28.125Z,-87
2016-07-13T07:22:28.054Z,-87
2016-07-13T07:23:28.152Z,-88
2016-07-13T07:24:28.133Z,-88
2016-07-13T07:25:28.400Z,-87
2016-07-13T07:26:28.111Z,-87
2016-07-13T07:27:28.078Z,-87
2016-07-13T07:28:28.143Z,-88
2016-07-13T07:29:28.707Z,-88
2016-07-13T07:30:28.142Z,-87
2016-07-13T07:31:28.235Z,-87
2016-07-13T07:32:28.275Z,-87
2016-07-13T07:33:27.991Z,-87
2016-07-13T07:34:28.094Z,-87
2016-07-13T07:35:29.855Z,-87
2016-07-13T07:36:28.163Z,-87
2016-07-13T07:37:29.328Z,-86
2016-07-13T07:38:28.084Z,-87
2016-07-13T07:39:28.101Z,-86
2016-07-13T07:40:28.165Z,-87
2016-07-13T07:41:28.123Z,-88
2016-07-13T07:42:28.060Z,-87
2016-07-13T07:43:28.207Z,-86
2016-07-13T07:44:28.093Z,-87
2016-07-13T07:45:28.107Z,-86
2016-07-13T07:46:28.268Z,-87
2016-07-13T07:47:28.117Z,-87
2016-07-13T07:48:28.229Z,-86
2016-07-13T07:49:28.131Z,-87
2016-07-13T07:50:28.141Z,-87
2016-07-13T07:51:28.127Z,-87
2016-07-13T07:52:28.048Z,-86
2016-07-13T07:53:28.199Z,-87
2016-07-13T07:54:28.212Z,-87
2016-07-13T07:55:28.188Z,-87
2016-07-13T07:56:28.314Z,-87
2016-07-13T07:57:28.272Z,-87
2016-07-13T07:58:28.198Z,-88
2016-07-13T07:59:28.143Z,-88
2016-07-13T08:00:28.169Z,-88
2016-07-13T08:01:28.291Z,-88
2016-07-13T08:02:28.283Z,-88
2016-07-13T08:03:28.497Z,-88
2016-07-13T08:04:28.154Z,-89
2016-07-13T08:05:28.383Z,-89
2016-07-13T08:06:28.263Z,-89
2016-07-13T08:07:28.349Z,-89
2016-07-13T08:08:28.253Z,-89
2016-07-13T08:09:28.129Z,-90
2016-07-13T08:10:28.267Z,-90
2016-07-13T08:11:28.262Z,-89
2016-07-13T08:12:28.304Z,-91
2016-07-13T08:13:28.252Z,-88
2016-07-13T08:14:28.338Z,-90
2016-07-13T08:15:28.453Z,-89
2016-07-13T08:16:28.404Z,-90
2016-07-13T08:17:28.342Z,-90
2016-07-13T08:18:28.333Z,-90
2016-07-13T08:19:28.472Z,-90
2016-07-13T08:20:28.299Z,-89
2016-07-13T08:21:28.142Z,-88
2016-07-13T08:22:28.276Z,-88
2016-07-13T08:23:28.277Z,-90
2016-07-13T08:24:28.273Z,-90
2016-07-13T08:25:28.208Z,-90
2016-07-13T08:26:28.215Z,-90
2016-07-13T08:27:28.316Z,-91
2016-07-13T08:28:28.409Z,-94
2016-07-13T08:29:28.720Z,-93
2016-07-13T08:30:28.193Z,-92
2016-07-13T08:31:28.266Z,-92
2016-07-13T08:32:28.197Z,-93
2016-07-13T08:33:28.478Z,-92
2016-07-13T08:34:28.379Z,-93
2016-07-13T08:35:28.308Z,-91
2016-07-13T08:36:28.264Z,-91
2016-07-13T08:37:28.222Z,-92
2016-07-13T08:38:28.397Z,-92
2016-07-13T08:39:28.372Z,-92
2016-07-13T08:40:28.357Z,-92
2016-07-13T08:41:28.416Z,-92
2016-07-13T08:42:28.371Z,-91
2016-07-13T08:43:28.428Z,-91
2016-07-13T08:44:28.415Z,-92
2016-07-13T08:45:28.227Z,-95
2016-07-13T08:46:30.650Z,-92
2016-07-13T08:47:28.484Z,-92
2016-07-13T08:48:28.276Z,-93
2016-07-13T08:49:28.447Z,-93
2016-07-13T08:50:28.430Z,-95
2016-07-13T08:51:28.637Z,-90
2016-07-13T08:52:28.443Z,-92
2016-07-13T08:53:28.459Z,-93
2016-07-13T08:54:28.640Z,-93
2016-07-13T08:55:31.732Z,-94
2016-07-13T08:56:28.355Z,-95
2016-07-13T08:57:28.428Z,-96
2016-07-13T08:58:29.059Z,-95
2016-07-13T08:59:28.412Z,-95
2016-07-13T09:00:28.491Z,-93
2016-07-13T09:01:29.708Z,-92
2016-07-13T09:02:28.341Z,-95
2016-07-13T09:03:28.480Z,-94
2016-07-13T09:04:29.178Z,-95
2016-07-13T09:05:28.432Z,-94
2016-07-13T09:06:28.372Z,-94
2016-07-13T09:07:28.443Z,-95
2016-07-13T09:08:28.393Z,-95
2016-07-13T09:09:28.457Z,-96
2016-07-13T09:10:28.452Z,-94
2016-07-13T09:11:28.491Z,-94
2016-07-13T09:12:28.319Z,-95
2016-07-13T09:13:28.371Z,-96
2016-07-13T09:14:28.652Z,-96
2016-07-13T09:15:30.233Z,-96
2016-07-13T09:16:28.382Z,-95
2016-07-13T09:17:28.564Z,-96
2016-07-13T09:18:28.301Z,-95
2016-07-13T09:19:34.332Z,-96
2016-07-13T09:20:28.344Z,-96
2016-07-13T09:21:28.405Z,-95
2016-07-13T09:22:40.377Z,-95
2016-07-13T09:23:28.518Z,-96
2016-07-13T09:24:28.490Z,-95
2016-07-13T09:25:28.791Z,-94
2016-07-13T09:26:28.677Z,-94
2016-07-13T09:27:28.571Z,-96
2016-07-13T09:28:28.508Z,-96
2016-07-13T09:29:28.501Z,-96
2016-07-13T09:30:28.552Z,-91
2016-07-13T09:31:28.363Z,-90
2016-07-13T09:32:28.432Z,-91
2016-07-13T09:33:28.692Z,-91
2016-07-13T09:34:28.624Z,-91
2016-07-13T09:35:29.396Z,-92
2016-07-13T09:36:28.478Z,-92
2016-07-13T09:37:28.683Z,-89
2016-07-13T09:38:28.604Z,-88
2016-07-13T09:39:28.382Z,-90
2016-07-13T09:40:28.542Z,-91
2016-07-13T09:41:28.511Z,-90
2016-07-13T09:42:28.548Z,-90
2016-07-13T09:43:28.553Z,-89
2016-07-13T09:44:28.371Z,-90
2016-07-13T09:45:28.531Z,-90
2016-07-13T09:46:28.701Z,-92
2016-07-13T09:47:28.553Z,-89
2016-07-13T09:48:28.406Z,-93
2016-07-13T09:49:29.398Z,-94
2016-07-13T09:50:28.583Z,-93
2016-07-13T09:51:28.592Z,-94
2016-07-13T09:52:29.329Z,-94
2016-07-13T09:53:28.684Z,-93
2016-07-13T09:54:28.773Z,-95
2016-07-13T09:55:29.440Z,-94
2016-07-13T09:56:28.679Z,-94
2016-07-13T09:57:28.838Z,-92
2016-07-13T09:58:28.578Z,-94
2016-07-13T09:59:28.614Z,-93
2016-07-13T10:00:28.649Z,-92
2016-07-13T10:01:28.563Z,-90
2016-07-13T10:02:28.627Z,-94
2016-07-13T10:03:28.770Z,-92
2016-07-13T10:04:28.513Z,-95
2016-07-13T10:05:28.651Z,-92
2016-07-13T10:06:28.669Z,-94
2016-07-13T10:07:28.553Z,-91
2016-07-13T10:08:28.676Z,-92
2016-07-13T10:09:28.639Z,-92
2016-07-13T10:10:28.579Z,-94
2016-07-13T10:11:28.528Z,-95
2016-07-13T10:12:29.005Z,-93
2016-07-13T10:13:28.619Z,-93
2016-07-13T10:14:28.927Z,-93
2016-07-13T10:15:28.543Z,-93
2016-07-13T10:16:28.628Z,-95
2016-07-13T10:17:29.822Z,-95
2016-07-13T10:18:28.726Z,-94
2016-07-13T10:19:28.530Z,-96
2016-07-13T10:20:28.687Z,-93
2016-07-13T10:21:28.846Z,-95
2016-07-13T10:22:28.827Z,-94
2016-07-13T10:23:28.662Z,-95
2016-07-13T10:24:28.665Z,-94
2016-07-13T10:25:29.037Z,-95
2016-07-13T10:26:28.628Z,-94
2016-07-13T10:27:28.519Z,-94
2016-07-13T10:28:28.599Z,-95
2016-07-13T10:29:29.414Z,-95
2016-07-13T10:30:28.622Z,-95
2016-07-13T10:31:28.676Z,-95
2016-07-13T10:32:28.676Z,-95
2016-07-13T10:33:28.815Z,-91
2016-07-13T10:34:28.778Z,-92
2016-07-13T10:35:28.718Z,-91
2016-07-13T10:36:28.802Z,-93
2016-07-13T10:37:28.605Z,-92
2016-07-13T10:38:28.729Z,-92
2016-07-13T10:39:28.702Z,-91
2016-07-13T10:40:28.809Z,-92
2016-07-13T10:41:28.842Z,-91
2016-07-13T10:42:28.671Z,-95
2016-07-13T10:43:28.705Z,-94
2016-07-13T10:44:28.760Z,-96
2016-07-13T10:45:28.840Z,-95
2016-07-13T10:46:28.809Z,-93
2016-07-13T10:47:28.829Z,-94
2016-07-13T10:48:28.793Z,-94
2016-07-13T10:49:28.575Z,-93
2016-07-13T10:50:28.753Z,-94
2016-07-13T10:51:28.721Z,-93
2016-07-13T10:52:28.831Z,-94
2016-07-13T10:53:28.810Z,-91
2016-07-13T10:54:29.969Z,-91
2016-07-13T10:55:28.606Z,-92
2016-07-13T10:56:28.634Z,-91
2016-07-13T10:57:28.817Z,-96
2016-07-13T10:58:29.371Z,-93
2016-07-13T10:59:29.771Z,-95
2016-07-13T11:00:28.790Z,-93
2016-07-13T11:01:28.710Z,-91
2016-07-13T11:02:28.620Z,-93
2016-07-13T11:03:28.714Z,-94
2016-07-13T11:04:29.650Z,-91
2016-07-13T11:05:28.740Z,-94
2016-07-13T11:06:28.801Z,-94
2016-07-13T11:07:28.766Z,-95
2016-07-13T11:08:28.919Z,-96
2016-07-13T11:09:28.862Z,-94
2016-07-13T11:10:28.725Z,-94
2016-07-13T11:11:28.796Z,-93
2016-07-13T11:12:28.863Z,-94
2016-07-13T11:13:28.866Z,-93
2016-07-13T11:14:28.896Z,-93
2016-07-13T11:15:28.914Z,-91
2016-07-13T11:16:28.931Z,-89
2016-07-13T11:17:28.688Z,-91
2016-07-13T11:18:28.917Z,-92
2016-07-13T11:19:28.666Z,-90
2016-07-13T11:20:28.811Z,-91
2016-07-13T11:21:28.910Z,-90
2016-07-13T11:22:28.804Z,-90
2016-07-13T11:23:28.834Z,-90
2016-07-13T11:24:28.896Z,-91
2016-07-13T11:25:28.877Z,-90
2016-07-13T11:26:29.435Z,-92
2016-07-13T11:27:28.922Z,-90
2016-07-13T11:28:28.880Z,-90
2016-07-13T11:29:28.912Z,-92
2016-07-13T11:30:28.889Z,-92
2016-07-13T11:31:28.817Z,-91
2016-07-13T11:32:28.911Z,-91
2016-07-13T11:33:28.844Z,-90
2016-07-13T11:34:28.928Z,-90
2016-07-13T11:35:28.994Z,-91
2016-07-13T11:36:28.915Z,-91
2016-07-13T11:37:28.978Z,-92
2016-07-13T11:38:28.744Z,-92
2016-07-13T11:39:28.987Z,-90
2016-07-13T11:40:28.862Z,-93
2016-07-13T11:41:28.962Z,-93
2016-07-13T11:42:29.441Z,-92
2016-07-13T11:43:28.814Z,-92
2016-07-13T11:44:28.883Z,-91
2016-07-13T11:45:28.912Z,-90
2016-07-13T11:46:28.960Z,-92
2016-07-13T11:47:28.789Z,-91
2016-07-13T11:48:28.936Z,-91
2016-07-13T11:49:28.923Z,-93
2016-07-13T11:50:29.519Z,-92
2016-07-13T11:51:28.987Z,-92
2016-07-13T11:53:34.020Z,-91
2016-07-13T11:53:41.064Z,-89
2016-07-13T11:54:40.993Z,-91
2016-07-13T11:55:41.837Z,-88
2016-07-13T11:56:41.145Z,-92
2016-07-13T11:57:41.760Z,-91
2016-07-13T11:58:41.214Z,-91
2016-07-13T11:59:41.238Z,-92
2016-07-13T12:00:40.963Z,-92
2016-07-13T12:01:41.073Z,-91
2016-07-13T12:02:41.100Z,-91
2016-07-13T12:03:41.100Z,-92
2016-07-13T12:04:41.133Z,-92
2016-07-13T12:05:40.984Z,-92
2016-07-13T12:06:41.023Z,-91
2016-07-13T12:07:41.255Z,-89
2016-07-13T12:08:41.211Z,-89
2016-07-13T12:09:41.246Z,-90
2016-07-13T12:10:41.336Z,-90
2016-07-13T12:11:41.124Z,-90
2016-07-13T12:12:41.047Z,-94
2016-07-13T12:13:41.002Z,-94
2016-07-13T12:14:41.158Z,-92
2016-07-13T12:15:41.092Z,-93
2016-07-13T12:16:41.205Z,-90
2016-07-13T12:17:41.219Z,-92
2016-07-13T12:18:42.085Z,-92
2016-07-13T12:19:41.740Z,-92
2016-07-13T12:20:41.059Z,-93
2016-07-13T12:21:40.985Z,-94
2016-07-13T12:22:41.430Z,-94
2016-07-13T12:23:40.992Z,-91
2016-07-13T12:24:41.165Z,-92
2016-07-13T12:25:41.087Z,-90
2016-07-13T12:26:41.095Z,-92
2016-07-13T12:27:41.285Z,-92
2016-07-13T12:28:41.496Z,-94
2016-07-13T12:29:41.255Z,-94
2016-07-13T12:30:42.459Z,-91
2016-07-13T12:31:41.255Z,-93
2016-07-13T12:32:41.217Z,-92
2016-07-13T12:33:41.250Z,-90
2016-07-13T12:34:41.242Z,-90
2016-07-13T12:35:41.279Z,-91
2016-07-13T12:36:41.421Z,-92
2016-07-13T12:37:41.598Z,-93
2016-07-13T12:38:41.496Z,-91
2016-07-13T12:39:41.569Z,-91
2016-07-13T12:40:41.502Z,-93
2016-07-13T12:41:41.845Z,-94
2016-07-13T12:42:41.176Z,-94
2016-07-13T12:43:41.202Z,-94
2016-07-13T12:44:41.143Z,-95
2016-07-13T12:45:41.175Z,-94
2016-07-13T12:46:41.406Z,-92
2016-07-13T12:47:41.284Z,-91
2016-07-13T12:48:41.816Z,-95
2016-07-13T12:49:41.098Z,-95
2016-07-13T12:50:41.310Z,-93
2016-07-13T12:51:41.235Z,-90
2016-07-13T12:52:41.188Z,-89
2016-07-13T12:53:41.231Z,-90
2016-07-13T12:54:41.255Z,-90
2016-07-13T12:55:41.822Z,-90
2016-07-13T12:56:41.480Z,-90
2016-07-13T12:57:41.352Z,-90
2016-07-13T12:58:41.290Z,-90
2016-07-13T12:59:41.241Z,-89
2016-07-13T13:00:41.073Z,-92
2016-07-13T13:01:41.292Z,-93
2016-07-13T13:02:41.393Z,-90
2016-07-13T13:03:41.265Z,-89
2016-07-13T13:04:41.364Z,-90
2016-07-13T13:05:41.182Z,-91
2016-07-13T13:06:41.308Z,-90
2016-07-13T13:07:41.358Z,-89
2016-07-13T13:08:41.145Z,-91
2016-07-13T13:09:41.371Z,-90
2016-07-13T13:10:41.236Z,-90
2016-07-13T13:11:41.214Z,-89
2016-07-13T13:12:41.235Z,-87
2016-07-13T13:13:41.197Z,-89
2016-07-13T13:14:41.375Z,-90
2016-07-13T13:15:41.406Z,-89
2016-07-13T13:16:41.290Z,-89
2016-07-13T13:17:41.222Z,-90
2016-07-13T13:18:41.354Z,-89
2016-07-13T13:19:41.155Z,-89
2016-07-13T13:20:41.293Z,-89
2016-07-13T13:21:41.429Z,-88
2016-07-13T13:22:41.410Z,-88
2016-07-13T13:23:41.415Z,-88
2016-07-13T13:24:41.247Z,-89
2016-07-13T13:25:41.285Z,-89
2016-07-13T13:26:41.211Z,-88
2016-07-13T13:27:41.441Z,-89
2016-07-13T13:28:41.153Z,-88
2016-07-13T13:29:41.375Z,-88
2016-07-13T13:30:41.183Z,-85
2016-07-13T13:31:41.240Z,-85
2016-07-13T13:32:41.324Z,-83
2016-07-13T13:33:41.229Z,-83
2016-07-13T13:34:41.214Z,-85
2016-07-13T13:35:41.393Z,-84
2016-07-13T13:36:41.374Z,-84
2016-07-13T13:37:41.455Z,-83
2016-07-13T13:38:41.315Z,-85
2016-07-13T13:39:41.477Z,-85
2016-07-13T13:40:41.350Z,-87
2016-07-13T13:41:41.304Z,-88
2016-07-13T13:42:41.263Z,-86
2016-07-13T13:43:46.918Z,-90
2016-07-13T13:44:41.401Z,-91
2016-07-13T13:45:42.036Z,-91
2016-07-13T13:46:41.316Z,-90
2016-07-13T13:47:41.316Z,-89